Time;durP1;ratioP1;P1;durP2;ratioP2;P2;SDS_P1;SDS_P2;PMS_P1;PMS_P2;Temp;Humidity;BMP_temperature;BMP_pressure;BME280_temperature;BME280_humidity;BME280_pressure;Samples;Min_cycle;Max_cycle;Signal;HPM_P1;HPM_P2
2021/03/07 00:00:14;;;;;;;8.20;5.97;;;5.00;1.00;;;;;;5088865;28;20194;-71
2021/03/07 00:02:42;;;;;;;7.60;6.40;;;5.00;1.00;;;;;;5110058;28;20190;-71
2021/03/07 00:05:12;;;;;;;6.63;5.93;;;4.90;1.00;;;;;;5106689;28;20195;-70
2021/03/07 00:07:39;;;;;;;9.38;6.43;;;4.90;1.00;;;;;;5108818;28;20708;-70
2021/03/07 00:10:08;;;;;;;10.15;6.55;;;4.90;1.00;;;;;;5113823;27;20203;-70
2021/03/07 00:12:36;;;;;;;8.18;5.85;;;5.00;1.00;;;;;;5109301;28;20220;-70
2021/03/07 00:15:05;;;;;;;7.07;6.07;;;4.90;1.00;;;;;;5088159;28;20615;-69
2021/03/07 00:17:32;;;;;;;8.25;6.25;;;4.90;1.00;;;;;;5106830;28;20260;-70
2021/03/07 00:20:00;;;;;;;8.07;7.32;;;4.90;1.00;;;;;;5107047;28;20206;-70
2021/03/07 00:22:28;;;;;;;9.60;7.05;;;4.90;1.00;;;;;;5107887;28;20625;-70
2021/03/07 00:24:55;;;;;;;11.75;7.88;;;4.90;1.00;;;;;;5106862;28;20196;-69
2021/03/07 00:27:22;;;;;;;9.40;7.90;;;4.80;1.00;;;;;;5105131;28;20225;-71
2021/03/07 00:29:50;;;;;;;8.02;6.35;;;4.80;1.00;;;;;;5106647;28;20245;-71
2021/03/07 00:32:17;;;;;;;8.05;7.22;;;4.70;1.00;;;;;;5107229;28;20200;-71
2021/03/07 00:34:44;;;;;;;9.35;6.75;;;4.70;1.00;;;;;;5107736;28;20222;-71
2021/03/07 00:37:11;;;;;;;7.50;5.45;;;4.70;1.00;;;;;;5112650;28;20642;-71
2021/03/07 00:39:39;;;;;;;7.43;6.72;;;4.60;1.00;;;;;;5118971;27;20666;-70
2021/03/07 00:42:07;;;;;;;10.63;6.70;;;4.60;1.00;;;;;;5116857;27;20254;-71
2021/03/07 00:44:34;;;;;;;6.85;5.18;;;4.60;1.00;;;;;;5107154;28;20195;-70
2021/03/07 00:47:01;;;;;;;6.93;5.63;;;4.50;1.00;;;;;;5113093;28;20291;-71
2021/03/07 00:49:31;;;;;;;6.55;5.95;;;4.50;1.00;;;;;;5109334;28;20198;-72
2021/03/07 00:52:00;;;;;;;8.13;6.05;;;4.30;1.00;;;;;;5111969;28;20284;-71
2021/03/07 00:54:27;;;;;;;8.38;6.25;;;4.40;1.00;;;;;;5092723;28;20289;-71
2021/03/07 00:56:55;;;;;;;9.48;6.22;;;4.50;1.00;;;;;;5090286;28;20640;-71
2021/03/07 00:59:23;;;;;;;6.80;6.10;;;4.40;1.00;;;;;;5103554;28;20239;-71
2021/03/07 01:01:50;;;;;;;6.57;5.93;;;4.40;1.00;;;;;;5111039;28;20209;-71
2021/03/07 01:04:18;;;;;;;8.68;6.32;;;4.40;1.00;;;;;;5109035;28;20204;-71
2021/03/07 01:06:45;;;;;;;8.82;6.15;;;4.30;1.00;;;;;;5112190;28;20222;-72
2021/03/07 01:09:14;;;;;;;7.20;5.90;;;4.30;1.00;;;;;;5112989;27;20285;-72
2021/03/07 01:11:57;;;;;;;7.93;6.40;;;4.30;1.00;;;;;;5111910;28;20240;-72
2021/03/07 01:14:24;;;;;;;7.28;6.25;;;4.30;1.00;;;;;;5110604;28;20208;-71
2021/03/07 01:16:51;;;;;;;6.53;5.38;;;4.40;1.00;;;;;;5107659;28;20213;-70
2021/03/07 01:19:19;;;;;;;8.20;6.60;;;4.30;1.00;;;;;;5088230;28;20199;-69
2021/03/07 01:21:46;;;;;;;9.15;6.55;;;4.20;1.00;;;;;;5111424;27;20671;-71
2021/03/07 01:24:13;;;;;;;8.80;6.25;;;4.20;1.00;;;;;;5110144;28;20251;-71
2021/03/07 01:26:41;;;;;;;8.20;5.70;;;4.20;1.00;;;;;;5110285;28;20219;-72
2021/03/07 01:29:09;;;;;;;7.07;5.53;;;4.30;1.00;;;;;;5110788;28;20719;-71
2021/03/07 01:31:36;;;;;;;6.10;5.50;;;4.10;1.00;;;;;;5109187;28;20848;-71
2021/03/07 01:34:04;;;;;;;8.45;5.80;;;4.10;1.00;;;;;;5108257;28;20213;-71
2021/03/07 01:36:31;;;;;;;6.82;6.15;;;4.00;1.00;;;;;;5108898;28;20219;-71
2021/03/07 01:38:58;;;;;;;7.00;5.70;;;4.00;1.00;;;;;;5111411;28;20192;-71
2021/03/07 01:41:25;;;;;;;8.88;7.15;;;4.00;1.00;;;;;;5126872;27;20211;-71
2021/03/07 01:43:53;;;;;;;6.75;5.25;;;4.00;1.00;;;;;;5109877;28;20257;-70
2021/03/07 01:46:22;;;;;;;8.18;5.20;;;4.00;1.00;;;;;;5109925;28;20203;-71
2021/03/07 01:48:50;;;;;;;6.32;5.38;;;4.10;1.00;;;;;;5107335;28;20204;-71
2021/03/07 01:51:18;;;;;;;8.02;6.32;;;4.10;1.00;;;;;;5100091;28;20206;-70
2021/03/07 01:53:46;;;;;;;7.72;5.15;;;4.00;1.00;;;;;;5109048;28;20735;-71
2021/03/07 01:56:14;;;;;;;7.65;5.97;;;4.00;1.00;;;;;;5110520;28;20191;-70
2021/03/07 01:58:43;;;;;;;8.95;5.10;;;3.90;1.00;;;;;;5108877;27;20233;-72
2021/03/07 02:01:10;;;;;;;7.90;5.88;;;3.90;1.00;;;;;;5109080;28;20211;-72
2021/03/07 02:03:49;;;;;;;6.55;5.90;;;3.80;1.00;;;;;;5107505;28;20198;-71
2021/03/07 02:06:16;;;;;;;6.07;5.57;;;3.80;1.00;;;;;;5107194;28;20215;-71
2021/03/07 02:08:43;;;;;;;7.25;5.60;;;3.80;1.00;;;;;;5091020;28;20200;-71
2021/03/07 02:11:11;;;;;;;6.40;5.63;;;3.80;1.00;;;;;;5119084;27;20189;-71
2021/03/07 02:13:40;;;;;;;5.95;5.10;;;3.80;1.00;;;;;;5108244;28;20219;-70
2021/03/07 02:16:11;;;;;;;6.13;5.22;;;3.70;1.00;;;;;;5107480;28;20199;-70
2021/03/07 02:18:41;;;;;;;10.65;6.25;;;3.70;1.00;;;;;;5107201;28;20189;-71
2021/03/07 02:21:11;;;;;;;5.45;4.90;;;3.70;1.00;;;;;;5091804;28;20582;-71
2021/03/07 02:23:53;;;;;;;9.43;6.22;;;3.70;1.00;;;;;;5109027;28;20186;-72
2021/03/07 02:26:20;;;;;;;6.60;5.20;;;3.70;1.00;;;;;;5091731;28;20200;-71
2021/03/07 02:28:48;;;;;;;7.95;5.78;;;3.70;1.00;;;;;;5108368;28;20241;-71
2021/03/07 02:31:18;;;;;;;8.60;5.95;;;3.70;1.00;;;;;;5110108;28;20612;-71
2021/03/07 02:33:49;;;;;;;8.88;5.28;;;3.60;1.00;;;;;;5109073;28;20293;-71
2021/03/07 02:36:21;;;;;;;6.43;5.10;;;3.60;1.00;;;;;;5109575;28;20193;-71
2021/03/07 02:38:50;;;;;;;8.00;4.97;;;3.60;1.00;;;;;;5109703;28;20194;-71
2021/03/07 02:41:18;;;;;;;5.78;4.57;;;3.60;1.00;;;;;;5108378;28;20209;-71
2021/03/07 02:43:52;;;;;;;7.22;4.30;;;3.60;1.00;;;;;;5109511;28;20194;-71
2021/03/07 02:46:21;;;;;;;5.22;4.28;;;3.50;1.00;;;;;;5103926;27;20200;-70
2021/03/07 02:48:55;;;;;;;6.82;6.15;;;3.60;1.00;;;;;;5109216;28;20196;-71
2021/03/07 02:51:24;;;;;;;5.72;4.07;;;3.50;1.00;;;;;;5109008;28;20233;-72
2021/03/07 02:53:53;;;;;;;6.47;3.95;;;3.50;1.00;;;;;;5104221;28;20210;-70
2021/03/07 02:56:23;;;;;;;4.25;3.85;;;3.40;1.00;;;;;;5105199;28;20197;-72
2021/03/07 02:58:56;;;;;;;6.50;3.90;;;3.40;1.00;;;;;;5105998;28;20188;-72
2021/03/07 03:01:25;;;;;;;4.28;3.90;;;3.50;1.00;;;;;;5092908;28;20546;-71
2021/03/07 03:03:53;;;;;;;4.90;4.35;;;3.40;1.00;;;;;;5107797;28;20691;-71
2021/03/07 03:06:21;;;;;;;4.50;4.10;;;3.40;1.00;;;;;;5089665;28;20567;-73
2021/03/07 03:08:54;;;;;;;5.22;4.72;;;3.40;1.00;;;;;;5090568;28;20211;-72
2021/03/07 03:11:25;;;;;;;5.13;3.97;;;3.40;1.00;;;;;;5089296;28;20300;-71
2021/03/07 03:13:53;;;;;;;7.82;4.10;;;3.40;1.00;;;;;;5122671;27;20205;-70
2021/03/07 03:16:24;;;;;;;5.55;5.05;;;3.30;1.00;;;;;;5108043;28;20740;-71
2021/03/07 03:18:52;;;;;;;4.38;3.97;;;3.30;1.00;;;;;;5104517;28;20209;-71
2021/03/07 03:21:19;;;;;;;6.63;4.78;;;3.30;1.00;;;;;;5109205;28;20606;-71
2021/03/07 03:23:48;;;;;;;7.43;4.53;;;3.30;1.00;;;;;;5104394;27;20712;-71
2021/03/07 03:26:19;;;;;;;6.03;5.20;;;3.30;1.00;;;;;;5108934;28;20246;-72
2021/03/07 03:28:47;;;;;;;8.27;5.22;;;3.30;1.00;;;;;;5120910;27;20225;-72
2021/03/07 03:31:15;;;;;;;9.32;4.28;;;3.30;1.00;;;;;;5133535;27;20189;-71
2021/03/07 03:33:42;;;;;;;4.63;4.18;;;3.20;1.00;;;;;;5105946;28;20200;-72
2021/03/07 03:36:10;;;;;;;6.30;4.70;;;3.30;1.00;;;;;;5087794;28;20294;-72
2021/03/07 03:38:40;;;;;;;6.80;4.72;;;3.20;1.00;;;;;;5108706;28;20585;-71
2021/03/07 03:41:09;;;;;;;8.95;5.65;;;3.20;1.00;;;;;;5107659;28;20223;-71
2021/03/07 03:43:56;;;;;;;5.72;4.88;;;3.20;1.00;;;;;;5090053;28;20699;-71
2021/03/07 03:46:24;;;;;;;8.45;5.68;;;3.30;1.00;;;;;;5088536;28;20193;-71
2021/03/07 03:48:58;;;;;;;8.32;5.65;;;3.20;1.00;;;;;;5107983;28;20215;-70
2021/03/07 03:51:26;;;;;;;13.68;6.80;;;3.20;1.00;;;;;;5085012;28;20273;-71
2021/03/07 03:53:56;;;;;;;7.45;5.63;;;3.20;1.00;;;;;;5098071;28;20304;-70
2021/03/07 03:56:25;;;;;;;8.00;5.47;;;3.20;1.00;;;;;;5108370;28;20197;-71
2021/03/07 03:58:56;;;;;;;6.63;5.35;;;3.20;1.00;;;;;;5106290;28;20193;-71
2021/03/07 04:01:25;;;;;;;10.52;5.90;;;3.20;1.00;;;;;;5090229;28;20222;-71
2021/03/07 04:03:54;;;;;;;5.63;4.65;;;3.10;1.00;;;;;;5108075;28;20578;-70
2021/03/07 04:06:23;;;;;;;5.63;4.93;;;3.00;1.00;;;;;;5086791;28;20480;-71
2021/03/07 04:08:52;;;;;;;9.10;5.65;;;3.00;1.00;;;;;;5107224;28;20244;-72
2021/03/07 04:11:21;;;;;;;6.63;4.63;;;3.00;1.00;;;;;;5107028;28;20852;-71
2021/03/07 04:13:48;;;;;;;34.08;14.45;;;3.00;1.00;;;;;;5081366;28;20307;-71
2021/03/07 04:16:17;;;;;;;17.13;8.27;;;3.00;1.00;;;;;;5106441;28;20208;-71
2021/03/07 04:18:47;;;;;;;27.10;12.95;;;3.10;1.00;;;;;;5109223;28;20201;-71
2021/03/07 04:21:15;;;;;;;44.63;18.67;;;3.00;1.00;;;;;;5104506;28;20237;-70
2021/03/07 04:23:42;;;;;;;22.60;12.55;;;3.00;1.00;;;;;;5089464;28;20198;-71
2021/03/07 04:26:11;;;;;;;14.70;8.98;;;3.00;1.00;;;;;;5086750;28;20192;-70
2021/03/07 04:28:40;;;;;;;12.00;7.75;;;2.90;1.00;;;;;;5107378;28;20579;-70
2021/03/07 04:31:07;;;;;;;9.20;6.47;;;2.90;1.00;;;;;;5088788;28;20282;-70
2021/03/07 04:33:37;;;;;;;8.93;6.10;;;2.90;1.00;;;;;;5087924;28;20216;-70
2021/03/07 04:36:06;;;;;;;8.02;5.78;;;2.90;1.00;;;;;;5107440;28;20204;-71
2021/03/07 04:38:34;;;;;;;10.25;5.88;;;3.00;1.00;;;;;;5106679;28;20218;-70
2021/03/07 04:41:02;;;;;;;10.82;6.18;;;3.00;1.00;;;;;;5128568;27;20199;-70
2021/03/07 04:43:46;;;;;;;5.82;5.20;;;2.90;1.00;;;;;;5116934;27;20284;-70
2021/03/07 04:46:13;;;;;;;7.28;4.30;;;2.90;1.00;;;;;;5089019;28;20292;-70
2021/03/07 04:48:42;;;;;;;6.82;4.80;;;2.80;1.00;;;;;;5124287;28;20203;-71
2021/03/07 04:51:09;;;;;;;8.77;5.40;;;2.80;1.00;;;;;;5119440;28;20256;-70
2021/03/07 04:53:37;;;;;;;11.98;6.00;;;2.80;1.00;;;;;;5089526;28;20213;-70
2021/03/07 04:56:05;;;;;;;6.30;4.60;;;2.90;1.00;;;;;;5087025;28;20199;-70
2021/03/07 04:58:33;;;;;;;5.88;5.18;;;2.90;1.00;;;;;;5089052;28;20252;-70
2021/03/07 05:01:01;;;;;;;5.38;4.85;;;2.80;1.00;;;;;;5121615;27;20305;-71
2021/03/07 05:03:28;;;;;;;6.55;4.47;;;2.80;1.00;;;;;;5121757;28;20264;-71
2021/03/07 05:05:56;;;;;;;6.57;4.45;;;2.70;1.00;;;;;;5089981;28;20197;-70
2021/03/07 05:08:25;;;;;;;5.85;5.00;;;2.70;1.00;;;;;;5106574;28;20216;-72
2021/03/07 05:10:53;;;;;;;5.38;4.07;;;2.80;1.00;;;;;;5122675;28;20199;-72
2021/03/07 05:13:20;;;;;;;3.78;3.30;;;2.80;1.00;;;;;;5119325;27;20588;-73
2021/03/07 05:15:47;;;;;;;4.30;3.45;;;2.80;1.00;;;;;;5090443;28;20678;-73
2021/03/07 05:18:15;;;;;;;5.07;3.95;;;2.80;1.00;;;;;;5108176;28;20747;-72
2021/03/07 05:20:43;;;;;;;3.80;3.50;;;2.80;1.00;;;;;;5121418;27;20253;-72
2021/03/07 05:23:11;;;;;;;7.68;4.60;;;2.80;1.00;;;;;;5098052;28;20201;-72
2021/03/07 05:25:39;;;;;;;3.78;3.30;;;2.80;1.00;;;;;;5124886;27;20210;-72
2021/03/07 05:28:06;;;;;;;4.70;3.38;;;2.80;1.00;;;;;;5110635;27;20292;-72
2021/03/07 05:30:36;;;;;;;4.20;3.17;;;2.80;1.00;;;;;;5106984;28;20198;-71
2021/03/07 05:33:04;;;;;;;3.40;3.10;;;2.70;1.00;;;;;;5110322;28;20182;-72
2021/03/07 05:35:31;;;;;;;3.47;3.17;;;2.70;1.00;;;;;;5092693;28;20278;-70
2021/03/07 05:37:59;;;;;;;5.35;3.40;;;2.70;1.00;;;;;;5110674;28;20272;-69
2021/03/07 05:40:27;;;;;;;5.38;3.50;;;2.70;1.00;;;;;;5090866;28;20200;-69
2021/03/07 05:42:54;;;;;;;5.63;4.20;;;2.80;1.00;;;;;;5105889;28;20641;-69
2021/03/07 05:45:24;;;;;;;5.80;3.90;;;2.70;1.00;;;;;;5089922;28;20581;-70
2021/03/07 05:47:53;;;;;;;4.60;3.90;;;2.70;1.00;;;;;;5093100;28;20207;-70
2021/03/07 05:50:21;;;;;;;5.13;3.92;;;2.70;1.00;;;;;;5109899;27;20603;-71
2021/03/07 05:52:52;;;;;;;4.32;3.10;;;2.70;1.00;;;;;;5108086;28;20277;-71
2021/03/07 05:55:19;;;;;;;4.50;4.10;;;2.80;1.00;;;;;;5110095;28;20622;-71
2021/03/07 05:57:49;;;;;;;8.82;4.15;;;2.80;1.00;;;;;;5110467;28;20711;-71
2021/03/07 06:00:18;;;;;;;5.93;4.35;;;2.70;1.00;;;;;;5109421;28;20206;-70
2021/03/07 06:02:46;;;;;;;5.10;4.40;;;2.70;1.00;;;;;;5107437;28;20530;-71
2021/03/07 06:05:16;;;;;;;6.15;4.60;;;2.70;1.00;;;;;;5091567;28;20184;-71
2021/03/07 06:07:44;;;;;;;5.30;4.00;;;2.70;1.00;;;;;;5092415;28;20642;-70
2021/03/07 06:10:14;;;;;;;5.00;3.75;;;2.60;1.00;;;;;;5094616;28;20191;-70
2021/03/07 06:12:43;;;;;;;5.53;3.72;;;2.60;1.00;;;;;;5110724;28;20208;-71
2021/03/07 06:15:13;;;;;;;5.53;3.67;;;2.60;1.00;;;;;;5090873;28;20207;-71
2021/03/07 06:17:42;;;;;;;4.43;3.20;;;2.60;1.00;;;;;;5101521;27;20780;-70
2021/03/07 06:20:12;;;;;;;3.90;3.60;;;2.60;1.00;;;;;;5103693;28;22211;-71
2021/03/07 06:22:47;;;;;;;5.22;4.38;;;2.70;1.00;;;;;;5102477;28;20749;-71
2021/03/07 06:25:15;;;;;;;5.13;3.75;;;2.70;1.00;;;;;;5090175;28;20219;-72
2021/03/07 06:27:42;;;;;;;4.53;3.90;;;2.60;1.00;;;;;;5102569;28;20218;-71
2021/03/07 06:30:12;;;;;;;5.57;4.85;;;2.60;1.00;;;;;;5118459;27;20189;-72
2021/03/07 06:32:41;;;;;;;7.95;5.50;;;2.70;1.00;;;;;;5106254;28;20275;-72
2021/03/07 06:35:11;;;;;;;11.00;7.80;;;2.70;1.00;;;;;;5091769;28;20233;-71
2021/03/07 06:37:52;;;;;;;6.72;5.68;;;2.70;1.00;;;;;;5109251;28;20440;-71
2021/03/07 06:40:25;;;;;;;7.63;5.90;;;2.70;1.00;;;;;;5084252;28;20201;-71
2021/03/07 06:42:52;;;;;;;7.18;5.45;;;2.70;1.00;;;;;;5113996;27;20251;-69
2021/03/07 06:45:20;;;;;;;9.95;6.07;;;2.70;1.00;;;;;;5108795;28;20202;-71
2021/03/07 06:47:57;;;;;;;9.68;5.75;;;2.70;1.00;;;;;;5106451;28;20278;-71
2021/03/07 06:50:25;;;;;;;7.35;5.50;;;2.80;1.00;;;;;;5105991;28;20198;-70
2021/03/07 06:52:54;;;;;;;7.05;5.25;;;2.90;1.00;;;;;;5089604;28;20207;-71
2021/03/07 06:55:24;;;;;;;7.07;5.82;;;2.90;1.00;;;;;;5109694;28;20705;-72
2021/03/07 06:57:52;;;;;;;4.95;4.45;;;2.90;1.00;;;;;;5087491;28;20227;-71
2021/03/07 07:00:36;;;;;;;7.03;6.13;;;3.00;1.00;;;;;;5091241;28;20566;-72
2021/03/07 07:03:09;;;;;;;6.47;4.90;;;2.90;1.00;;;;;;5100206;28;20226;-72
2021/03/07 07:05:41;;;;;;;6.35;4.43;;;2.90;1.00;;;;;;5091492;28;20249;-72
2021/03/07 07:08:09;;;;;;;5.95;5.43;;;3.00;1.00;;;;;;5104468;28;20310;-72
2021/03/07 07:11:02;;;;;;;6.05;4.75;;;3.10;1.00;;;;;;5087891;28;20210;-72
2021/03/07 07:13:30;;;;;;;6.20;4.97;;;3.20;1.00;;;;;;5106796;28;20196;-71
2021/03/07 07:16:05;;;;;;;5.25;4.45;;;3.20;1.00;;;;;;5084910;28;20306;-71
2021/03/07 07:18:35;;;;;;;9.90;5.68;;;3.30;1.00;;;;;;5085856;28;20213;-71
2021/03/07 07:21:04;;;;;;;5.70;5.15;;;3.40;1.00;;;;;;5119012;27;20241;-71
2021/03/07 07:23:31;;;;;;;6.50;5.03;;;3.50;1.00;;;;;;5105230;28;20208;-70
2021/03/07 07:25:59;;;;;;;8.40;5.07;;;3.50;1.00;;;;;;5088170;28;20197;-70
2021/03/07 07:28:27;;;;;;;6.78;5.22;;;3.60;1.00;;;;;;5108252;28;20217;-70
2021/03/07 07:31:01;;;;;;;5.65;4.80;;;3.70;1.00;;;;;;5108089;28;20196;-71
2021/03/07 07:33:37;;;;;;;6.47;4.80;;;3.70;1.00;;;;;;5108858;28;20341;-70
2021/03/07 07:36:06;;;;;;;6.03;5.43;;;3.90;1.00;;;;;;5106280;28;20640;-71
2021/03/07 07:38:35;;;;;;;7.18;5.10;;;3.90;1.00;;;;;;5108684;28;20253;-71
2021/03/07 07:41:02;;;;;;;6.47;5.88;;;4.10;1.00;;;;;;5108371;28;20212;-71
2021/03/07 07:43:50;;;;;;;7.10;6.40;;;4.20;1.00;;;;;;5107441;27;20197;-70
2021/03/07 07:46:19;;;;;;;7.03;5.40;;;4.50;1.00;;;;;;5107444;28;20194;-71
2021/03/07 07:48:47;;;;;;;6.95;4.82;;;4.50;1.00;;;;;;5106708;28;20195;-71
2021/03/07 07:51:44;;;;;;;6.10;5.47;;;4.80;1.00;;;;;;5108179;28;20189;-71
2021/03/07 07:54:50;;;;;;;4.28;3.90;;;5.00;1.00;;;;;;5024933;28;20634;-72
2021/03/07 07:57:41;;;;;;;5.40;4.90;;;5.10;1.00;;;;;;5109269;28;20208;-71
2021/03/07 08:00:11;;;;;;;4.53;4.13;;;5.20;1.00;;;;;;5103648;28;20209;-71
2021/03/07 08:02:50;;;;;;;6.40;4.60;;;5.10;1.00;;;;;;5099352;28;20199;-72
2021/03/07 08:05:45;;;;;;;7.18;5.03;;;5.20;1.00;;;;;;5095768;28;20645;-72
2021/03/07 08:08:14;;;;;;;6.40;5.38;;;5.20;1.00;;;;;;5099101;28;20733;-71
2021/03/07 08:10:50;;;;;;;5.55;5.05;;;5.40;1.00;;;;;;5102754;27;20199;-72
2021/03/07 08:13:45;;;;;;;5.45;4.97;;;5.60;1.00;;;;;;5075286;28;20584;-72
2021/03/07 08:16:13;;;;;;;6.37;5.77;;;5.80;1.00;;;;;;5092998;28;20286;-72
2021/03/07 08:18:52;;;;;;;6.03;5.43;;;5.90;1.00;;;;;;5082055;28;20520;-71
2021/03/07 08:21:20;;;;;;;5.63;5.07;;;6.00;1.00;;;;;;5099808;28;20440;-72
2021/03/07 08:24:01;;;;;;;5.83;5.30;;;6.20;1.00;;;;;;5102152;28;20472;-71
2021/03/07 08:27:00;;;;;;;5.50;4.93;;;6.30;1.00;;;;;;5103681;28;20471;-71
2021/03/07 08:29:45;;;;;;;6.32;5.72;;;6.40;1.00;;;;;;5080693;28;20458;-72
2021/03/07 08:32:26;;;;;;;5.83;5.23;;;6.60;1.00;;;;;;5082811;28;20289;-71
2021/03/07 08:34:55;;;;;;;6.10;5.50;;;6.60;1.00;;;;;;5086539;28;20464;-71
2021/03/07 08:37:22;;;;;;;5.90;5.30;;;6.70;1.00;;;;;;5091024;28;20525;-70
2021/03/07 08:40:19;;;;;;;8.60;5.47;;;6.70;1.00;;;;;;5112495;28;20525;-71
2021/03/07 08:42:47;;;;;;;5.40;4.90;;;7.00;1.00;;;;;;5083078;28;20976;-72
2021/03/07 08:45:17;;;;;;;7.33;5.60;;;7.10;1.00;;;;;;5098410;28;21049;-71
2021/03/07 08:47:52;;;;;;;6.83;5.97;;;7.20;1.00;;;;;;5086431;28;20487;-72
2021/03/07 08:50:21;;;;;;;7.03;5.80;;;7.40;1.00;;;;;;5083093;28;20461;-71
2021/03/07 08:52:49;;;;;;;6.57;5.93;;;7.70;1.00;;;;;;5096934;28;20469;-72
2021/03/07 08:55:16;;;;;;;7.77;6.63;;;8.00;1.00;;;;;;5074918;28;20512;-72
2021/03/07 08:57:45;;;;;;;9.15;7.40;;;8.20;1.00;;;;;;5089111;28;20376;-70
2021/03/07 09:00:15;;;;;;;6.53;5.90;;;8.30;1.00;;;;;;5085480;28;20193;-71
2021/03/07 09:02:44;;;;;;;7.53;6.73;;;8.40;1.00;;;;;;5105990;28;20459;-72
2021/03/07 09:05:28;;;;;;;8.67;5.73;;;8.60;1.00;;;;;;5104823;28;20439;-77
2021/03/07 09:08:01;;;;;;;6.87;5.97;;;8.90;1.00;;;;;;5105739;28;20471;-72
2021/03/07 09:10:37;;;;;;;10.20;6.60;;;9.20;1.00;;;;;;5086926;28;20533;-72
2021/03/07 09:13:09;;;;;;;7.40;6.63;;;9.40;1.00;;;;;;5091545;28;20948;-71
2021/03/07 09:15:38;;;;;;;7.43;6.70;;;9.60;1.00;;;;;;5089239;28;20571;-72
2021/03/07 09:18:06;;;;;;;7.33;6.63;;;9.70;1.00;;;;;;5099138;28;20518;-71
2021/03/07 09:20:47;;;;;;;8.30;5.73;;;9.90;1.00;;;;;;5083059;28;20463;-70
2021/03/07 09:23:34;;;;;;;7.63;6.70;;;10.00;1.00;;;;;;5117288;27;20550;-71
2021/03/07 09:26:05;;;;;;;8.07;7.20;;;9.80;1.00;;;;;;5108377;28;20446;-71
2021/03/07 09:28:35;;;;;;;9.13;6.90;;;9.70;1.00;;;;;;5094354;27;20485;-70
2021/03/07 09:31:05;;;;;;;11.23;7.60;;;9.70;1.00;;;;;;5111846;27;20457;-72
2021/03/07 09:33:33;;;;;;;7.40;6.70;;;9.60;1.00;;;;;;5099405;28;21047;-70
2021/03/07 09:36:03;;;;;;;7.90;6.57;;;9.70;1.00;;;;;;5106318;27;20479;-71
2021/03/07 09:38:50;;;;;;;7.57;6.57;;;9.90;1.00;;;;;;5107451;27;20479;-70
2021/03/07 09:41:28;;;;;;;6.80;6.10;;;10.20;1.00;;;;;;5090851;28;20496;-72
2021/03/07 09:43:56;;;;;;;5.87;5.27;;;10.50;1.00;;;;;;5110748;28;20980;-72
2021/03/07 09:46:24;;;;;;;7.80;6.80;;;10.90;1.00;;;;;;5110270;28;20451;-72
2021/03/07 09:48:57;;;;;;;7.80;6.83;;;11.30;1.00;;;;;;5091560;28;21084;-71
2021/03/07 09:51:29;;;;;;;7.10;6.20;;;11.70;1.00;;;;;;5109996;28;20522;-72
2021/03/07 09:53:56;;;;;;;7.93;7.07;;;12.10;1.00;;;;;;5109881;28;20506;-70
2021/03/07 09:56:25;;;;;;;7.33;6.63;;;12.60;1.00;;;;;;5110499;28;20453;-73
2021/03/07 09:58:53;;;;;;;7.77;7.07;;;12.90;1.00;;;;;;5109423;28;20498;-71
2021/03/07 10:01:20;;;;;;;9.43;7.37;;;13.30;1.00;;;;;;5110453;28;20496;-70
2021/03/07 10:03:47;;;;;;;7.87;7.13;;;13.50;1.00;;;;;;5109414;28;20497;-71
2021/03/07 10:06:19;;;;;;;7.87;7.17;;;13.70;1.00;;;;;;5125520;27;20452;-72
2021/03/07 10:09:04;;;;;;;8.87;7.97;;;13.90;1.00;;;;;;5109598;28;21034;-72
2021/03/07 10:11:31;;;;;;;8.00;7.20;;;14.30;1.00;;;;;;5109063;28;20456;-75
2021/03/07 10:14:02;;;;;;;8.50;7.70;;;14.60;1.00;;;;;;5110230;28;20456;-70
2021/03/07 10:16:32;;;;;;;8.57;7.77;;;14.80;1.00;;;;;;5109479;28;20898;-71
2021/03/07 10:19:11;;;;;;;8.30;7.50;;;14.90;1.00;;;;;;5104004;28;20459;-72
2021/03/07 10:21:40;;;;;;;7.90;7.10;;;15.00;1.00;;;;;;5107170;28;20455;-72
2021/03/07 10:24:10;;;;;;;9.17;7.93;;;15.10;1.00;;;;;;5107495;28;20788;-71
2021/03/07 10:26:39;;;;;;;7.50;6.80;;;15.30;1.00;;;;;;5108427;27;20592;-73
2021/03/07 10:29:29;;;;;;;7.93;7.17;;;15.40;1.00;;;;;;5092403;28;20469;-72
2021/03/07 10:32:18;;;;;;;8.37;7.47;;;15.60;1.00;;;;;;5114196;27;20497;-70
2021/03/07 10:34:50;;;;;;;8.80;8.00;;;15.80;1.00;;;;;;5108046;27;20572;-72
2021/03/07 10:37:37;;;;;;;8.93;8.13;;;16.00;1.00;;;;;;5111341;27;20478;-73
2021/03/07 10:40:09;;;;;;;9.17;8.37;;;16.20;1.00;;;;;;5109505;27;20463;-73
2021/03/07 10:42:38;;;;;;;8.40;7.60;;;16.30;1.00;;;;;;5111175;27;20823;-73
2021/03/07 10:45:13;;;;;;;7.73;7.03;;;16.50;1.00;;;;;;5115811;27;20485;-72
2021/03/07 10:47:40;;;;;;;8.27;7.47;;;16.70;1.00;;;;;;5117548;27;20471;-72
2021/03/07 10:50:10;;;;;;;8.60;7.80;;;17.00;1.00;;;;;;5110796;27;20471;-73
2021/03/07 10:52:38;;;;;;;8.37;7.57;;;17.20;2.30;;;;;;5114447;27;20457;-73
2021/03/07 10:55:15;;;;;;;7.23;6.53;;;17.40;3.40;;;;;;5092048;28;20476;-74
2021/03/07 10:57:43;;;;;;;8.53;7.63;;;17.70;4.30;;;;;;5109757;27;20542;-71
2021/03/07 11:00:12;;;;;;;8.17;7.37;;;17.90;6.80;;;;;;5136045;27;20424;-74
2021/03/07 11:02:39;;;;;;;8.20;7.50;;;18.20;8.30;;;;;;5093629;28;20460;-73
2021/03/07 11:05:08;;;;;;;7.80;7.10;;;18.60;11.20;;;;;;5109148;27;20488;-74
2021/03/07 11:07:35;;;;;;;8.10;6.87;;;18.70;10.80;;;;;;5095460;27;20465;-74
2021/03/07 11:10:07;;;;;;;7.60;7.00;;;19.10;12.90;;;;;;5116035;27;20542;-75
2021/03/07 11:12:37;;;;;;;8.00;7.30;;;19.10;12.50;;;;;;5103048;27;20458;-75
2021/03/07 11:15:07;;;;;;;8.20;7.50;;;19.40;15.50;;;;;;5116548;27;20454;-73
2021/03/07 11:17:34;;;;;;;7.83;7.13;;;20.80;25.40;;;;;;5106147;28;20217;-74
2021/03/07 11:20:02;;;;;;;9.50;8.50;;;20.60;22.40;;;;;;5101293;28;20973;-74
2021/03/07 11:22:29;;;;;;;8.60;7.90;;;20.30;20.20;;;;;;5109794;28;20531;-73
2021/03/07 11:24:56;;;;;;;7.63;6.93;;;20.30;19.70;;;;;;5091753;28;20441;-74
2021/03/07 11:27:23;;;;;;;9.23;8.33;;;20.00;16.50;;;;;;5109031;28;20476;-74
2021/03/07 11:29:51;;;;;;;8.40;7.67;;;19.50;12.70;;;;;;5108153;28;20451;-72
2021/03/07 11:32:18;;;;;;;8.67;7.77;;;19.20;10.60;;;;;;5109401;28;20463;-73
2021/03/07 11:34:46;;;;;;;7.93;7.20;;;19.00;7.70;;;;;;5100856;28;20483;-73
2021/03/07 11:37:13;;;;;;;8.77;7.70;;;18.90;7.00;;;;;;5104975;28;20477;-73
2021/03/07 11:39:40;;;;;;;8.00;7.00;;;18.70;5.00;;;;;;5097831;28;20525;-73
2021/03/07 11:42:08;;;;;;;8.53;7.73;;;18.50;2.90;;;;;;5102768;28;20458;-74
2021/03/07 11:44:35;;;;;;;8.10;7.33;;;18.00;1.00;;;;;;5106319;28;20456;-74
2021/03/07 11:47:03;;;;;;;8.43;7.73;;;17.70;1.00;;;;;;5106945;28;20994;-74
2021/03/07 11:49:40;;;;;;;8.13;6.90;;;17.30;1.00;;;;;;5103870;28;20453;-73
2021/03/07 11:52:09;;;;;;;6.90;6.20;;;17.10;1.00;;;;;;5109602;28;20575;-74
2021/03/07 11:54:36;;;;;;;8.43;7.30;;;16.90;1.00;;;;;;5105975;28;20692;-74
2021/03/07 11:57:04;;;;;;;8.23;7.33;;;16.80;1.00;;;;;;5102324;28;20476;-74
2021/03/07 11:59:31;;;;;;;7.00;6.30;;;16.60;1.00;;;;;;5105729;28;20453;-74
2021/03/07 12:01:58;;;;;;;7.10;6.50;;;16.50;1.00;;;;;;5107513;28;20455;-74
2021/03/07 12:04:27;;;;;;;7.43;6.83;;;16.40;1.00;;;;;;5104275;28;20951;-74
2021/03/07 12:06:54;;;;;;;10.90;8.60;;;16.30;1.00;;;;;;5106424;28;20499;-75
2021/03/07 12:09:21;;;;;;;7.93;6.73;;;16.10;1.00;;;;;;5105778;28;20462;-75
2021/03/07 12:11:48;;;;;;;6.07;5.50;;;16.00;1.00;;;;;;5103885;28;20518;-73
2021/03/07 12:14:15;;;;;;;6.60;5.90;;;16.10;1.00;;;;;;5098259;28;20506;-74
2021/03/07 12:16:42;;;;;;;8.87;7.00;;;16.10;1.00;;;;;;5102366;28;20485;-74
2021/03/07 12:19:10;;;;;;;6.90;6.20;;;16.00;1.00;;;;;;5100659;28;20561;-74
2021/03/07 12:21:38;;;;;;;7.73;6.93;;;16.10;1.00;;;;;;5101181;28;20451;-74
2021/03/07 12:24:06;;;;;;;8.13;6.73;;;15.90;1.00;;;;;;5104695;28;20457;-73
2021/03/07 12:26:33;;;;;;;8.33;7.40;;;15.90;1.00;;;;;;5105361;28;22284;-74
2021/03/07 12:29:00;;;;;;;6.97;6.33;;;15.90;1.00;;;;;;5084648;28;20471;-73
2021/03/07 12:31:28;;;;;;;7.27;6.57;;;15.90;1.00;;;;;;5109097;28;20458;-74
2021/03/07 12:33:57;;;;;;;6.13;5.50;;;16.00;1.00;;;;;;5109772;28;20544;-73
2021/03/07 12:36:25;;;;;;;7.53;6.70;;;16.00;1.00;;;;;;5106510;28;20478;-74
2021/03/07 12:38:53;;;;;;;6.07;5.57;;;16.00;1.00;;;;;;5105883;28;20525;-74
2021/03/07 12:41:20;;;;;;;6.50;5.90;;;16.00;1.00;;;;;;5096305;28;20515;-74
2021/03/07 12:43:48;;;;;;;7.53;6.83;;;16.00;1.00;;;;;;5107392;28;20461;-73
2021/03/07 12:46:15;;;;;;;6.67;6.07;;;16.00;1.00;;;;;;5109967;28;20461;-73
2021/03/07 12:48:42;;;;;;;8.70;7.80;;;16.00;1.00;;;;;;5112125;28;20472;-73
2021/03/07 12:51:10;;;;;;;7.73;6.20;;;16.00;1.00;;;;;;5107941;28;20456;-75
2021/03/07 12:53:38;;;;;;;7.53;6.83;;;16.00;1.00;;;;;;5105666;28;20461;-75
2021/03/07 12:56:07;;;;;;;8.20;6.97;;;16.10;1.00;;;;;;5108127;28;20485;-74
2021/03/07 12:58:34;;;;;;;8.73;7.37;;;16.00;1.00;;;;;;5106167;28;20984;-74
2021/03/07 13:01:01;;;;;;;8.47;7.50;;;15.90;1.00;;;;;;5107378;28;20954;-75
2021/03/07 13:03:28;;;;;;;8.43;6.33;;;15.90;1.00;;;;;;5107137;28;20984;-73
2021/03/07 13:05:55;;;;;;;8.27;7.47;;;15.90;1.00;;;;;;5107734;28;20498;-75
2021/03/07 13:08:23;;;;;;;7.70;7.00;;;15.90;1.00;;;;;;5099222;28;20519;-72
2021/03/07 13:10:50;;;;;;;7.93;7.23;;;15.80;1.00;;;;;;5106592;28;20525;-73
2021/03/07 13:13:19;;;;;;;5.80;5.30;;;15.70;1.00;;;;;;5091264;28;20457;-74
2021/03/07 13:15:46;;;;;;;7.67;6.87;;;15.60;1.00;;;;;;5111096;28;20547;-74
2021/03/07 13:18:13;;;;;;;7.33;6.57;;;15.50;1.00;;;;;;5108463;28;20532;-73